Time;durP1;ratioP1;P1;durP2;ratioP2;P2;SDS_P1;SDS_P2;PMS_P1;PMS_P2;Temp;Humidity;BMP_temperature;BMP_pressure;BME280_temperature;BME280_humidity;BME280_pressure;Samples;Min_cycle;Max_cycle;Signal;HPM_P1;HPM_P2
2021/04/03 00:01:35;;;;;;;8.77;6.10;;;9.20;61.70;;;;;;4957264;29;20457;-86
2021/04/03 00:04:01;;;;;;;7.80;6.77;;;9.20;61.70;;;;;;4954314;29;21034;-86
2021/04/03 00:06:28;;;;;;;7.37;6.67;;;9.10;61.30;;;;;;4956145;29;20449;-85
2021/04/03 00:08:54;;;;;;;8.70;7.07;;;9.10;61.50;;;;;;4955802;29;21090;-87
2021/04/03 00:11:21;;;;;;;8.00;6.30;;;9.10;61.40;;;;;;4955604;29;20855;-86
2021/04/03 00:13:48;;;;;;;9.93;7.70;;;9.10;61.60;;;;;;4953158;28;20460;-87
2021/04/03 00:16:14;;;;;;;11.73;8.03;;;9.00;61.60;;;;;;4957502;28;20457;-86
2021/04/03 00:22:04;;;;;;;8.37;6.63;;;8.90;61.40;;;;;;4887672;29;20490;-86
2021/04/03 00:24:31;;;;;;;11.03;7.10;;;8.90;61.20;;;;;;4955032;29;21194;-86
2021/04/03 00:26:57;;;;;;;10.70;7.30;;;8.90;61.00;;;;;;4957725;29;21001;-86
2021/04/03 00:29:24;;;;;;;12.13;7.63;;;8.90;60.70;;;;;;4958993;29;20449;-86
2021/04/03 00:31:51;;;;;;;9.33;7.00;;;8.90;60.70;;;;;;4972618;28;20481;-86
2021/04/03 00:34:18;;;;;;;9.93;7.43;;;8.90;60.80;;;;;;4964391;29;20449;-86
2021/04/03 00:36:44;;;;;;;11.63;8.50;;;8.80;60.60;;;;;;4978153;28;21089;-85
2021/04/03 00:39:11;;;;;;;9.40;7.60;;;8.80;60.90;;;;;;4963003;29;20448;-86
2021/04/03 00:41:37;;;;;;;7.70;7.00;;;8.80;61.10;;;;;;4956581;29;20453;-86
2021/04/03 00:44:07;;;;;;;8.20;6.60;;;8.80;61.10;;;;;;4961577;29;20483;-87
2021/04/03 00:46:36;;;;;;;7.97;7.27;;;8.90;61.30;;;;;;4957232;29;20514;-86
2021/04/03 00:49:05;;;;;;;8.23;7.17;;;8.80;61.10;;;;;;4969921;29;20557;-86
2021/04/03 00:51:31;;;;;;;10.43;7.37;;;8.80;60.90;;;;;;4965302;28;20512;-87
2021/04/03 00:53:58;;;;;;;9.30;6.93;;;8.90;60.50;;;;;;4966652;29;20440;-87
2021/04/03 00:56:25;;;;;;;13.87;7.70;;;8.80;60.40;;;;;;4974608;29;20461;-87
2021/04/03 00:58:53;;;;;;;11.17;8.23;;;8.70;60.40;;;;;;4969558;28;20453;-86
2021/04/03 01:01:21;;;;;;;11.70;8.43;;;8.70;60.60;;;;;;4960124;29;20525;-87
2021/04/03 01:03:48;;;;;;;11.70;7.90;;;8.70;60.50;;;;;;4959131;28;20472;-86
2021/04/03 01:06:15;;;;;;;8.37;7.17;;;8.60;60.30;;;;;;4971082;29;20483;-87
2021/04/03 01:08:42;;;;;;;10.93;7.60;;;8.60;60.30;;;;;;4965373;29;20445;-86
2021/04/03 01:11:09;;;;;;;9.07;7.07;;;8.60;60.00;;;;;;4967210;28;20465;-87
2021/04/03 01:13:48;;;;;;;13.30;7.50;;;8.60;60.00;;;;;;4968139;28;20436;-88
2021/04/03 01:16:20;;;;;;;9.83;8.77;;;8.60;59.80;;;;;;4978867;28;20437;-86
2021/04/03 01:18:57;;;;;;;8.53;7.53;;;8.60;59.70;;;;;;4975658;28;20469;-86
2021/04/03 01:21:33;;;;;;;9.23;7.37;;;8.60;59.60;;;;;;4975951;29;20459;-86
2021/04/03 01:24:27;;;;;;;11.30;9.07;;;8.60;59.40;;;;;;4971334;29;20425;-86
2021/04/03 01:27:17;;;;;;;7.93;7.13;;;8.60;59.10;;;;;;4966102;29;20444;-86
2021/04/03 01:30:12;;;;;;;8.30;7.20;;;8.60;59.20;;;;;;4967309;28;20445;-86
2021/04/03 01:32:47;;;;;;;12.60;9.00;;;8.60;59.30;;;;;;4978912;28;20488;-85
2021/04/03 01:35:18;;;;;;;9.47;6.17;;;8.50;59.30;;;;;;4980470;28;20437;-84
2021/04/03 01:37:49;;;;;;;8.70;7.20;;;8.50;59.30;;;;;;4980300;28;20444;-85
2021/04/03 01:40:18;;;;;;;10.47;6.87;;;8.50;59.20;;;;;;4975229;28;20452;-85
2021/04/03 01:42:50;;;;;;;8.27;7.43;;;8.60;59.30;;;;;;4963867;29;20463;-85
2021/04/03 01:45:20;;;;;;;11.50;6.73;;;8.60;59.10;;;;;;4970041;29;20497;-85
2021/04/03 01:47:48;;;;;;;9.00;7.10;;;8.50;59.10;;;;;;4980195;28;20520;-85
2021/04/03 01:50:15;;;;;;;7.13;6.03;;;8.50;59.10;;;;;;4980322;28;20443;-85
2021/04/03 01:52:42;;;;;;;10.37;6.50;;;8.60;59.20;;;;;;4976534;28;20476;-85
2021/04/03 01:55:11;;;;;;;9.43;6.47;;;8.50;59.10;;;;;;4965173;29;20445;-85
2021/04/03 01:57:39;;;;;;;8.30;6.80;;;8.50;59.10;;;;;;4959192;29;20487;-86
2021/04/03 02:00:10;;;;;;;9.70;6.23;;;8.30;59.30;;;;;;4961937;29;20449;-85
2021/04/03 02:02:41;;;;;;;8.13;6.60;;;8.20;59.60;;;;;;4958238;29;20533;-85
2021/04/03 02:05:11;;;;;;;7.67;6.90;;;8.10;59.70;;;;;;4962429;29;20508;-86
2021/04/03 02:07:39;;;;;;;8.80;7.80;;;8.10;60.00;;;;;;4958798;28;20468;-85
2021/04/03 02:10:07;;;;;;;9.70;6.30;;;8.00;60.20;;;;;;4972081;28;20528;-86
2021/04/03 02:12:35;;;;;;;8.83;6.40;;;8.00;60.30;;;;;;4972734;28;20496;-86
2021/04/03 02:15:04;;;;;;;9.20;6.77;;;8.00;60.00;;;;;;4961220;29;20449;-86
2021/04/03 02:17:32;;;;;;;8.93;7.00;;;8.00;60.20;;;;;;4959139;29;20472;-84
2021/04/03 02:20:00;;;;;;;8.33;6.70;;;8.00;60.30;;;;;;4971788;28;20456;-85
2021/04/03 02:22:27;;;;;;;8.70;7.23;;;8.00;60.30;;;;;;4973009;28;20449;-85
2021/04/03 02:24:55;;;;;;;10.57;7.60;;;8.00;60.40;;;;;;4975628;28;20461;-85
2021/04/03 02:27:21;;;;;;;9.07;7.60;;;8.10;60.70;;;;;;4958131;29;20497;-86
2021/04/03 02:29:47;;;;;;;8.57;7.37;;;8.10;60.80;;;;;;4956656;29;20484;-86
2021/04/03 02:32:15;;;;;;;8.67;7.40;;;8.10;61.00;;;;;;4956050;29;20571;-86
2021/04/03 02:34:41;;;;;;;9.93;7.20;;;8.10;61.10;;;;;;4957135;29;20457;-86
2021/04/03 02:37:08;;;;;;;12.60;8.23;;;8.20;61.20;;;;;;4956692;28;20464;-86
2021/04/03 02:39:36;;;;;;;11.13;8.90;;;8.10;61.40;;;;;;4956735;28;20441;-86
2021/04/03 02:42:07;;;;;;;10.50;6.80;;;8.10;61.70;;;;;;4955178;29;20440;-86
2021/04/03 02:44:38;;;;;;;11.20;7.67;;;8.10;61.90;;;;;;4958006;29;20449;-86
2021/04/03 02:47:12;;;;;;;14.40;7.33;;;8.00;61.80;;;;;;4958633;28;20508;-86
2021/04/03 02:49:42;;;;;;;9.40;6.83;;;8.10;62.10;;;;;;4957957;28;20461;-87
2021/04/03 02:52:13;;;;;;;10.17;6.80;;;8.00;62.10;;;;;;4963459;29;20511;-86
2021/04/03 02:54:42;;;;;;;9.20;6.03;;;8.00;62.10;;;;;;4962733;29;20531;-86
2021/04/03 02:57:12;;;;;;;13.13;6.63;;;8.00;62.10;;;;;;4956856;29;20469;-85
2021/04/03 02:59:43;;;;;;;13.03;6.50;;;8.00;62.20;;;;;;4964134;28;20468;-86
2021/04/03 03:02:14;;;;;;;10.33;6.37;;;8.00;61.90;;;;;;4958181;29;20449;-86
2021/04/03 03:04:44;;;;;;;12.93;8.97;;;8.00;61.70;;;;;;4960735;29;20457;-86
2021/04/03 03:07:12;;;;;;;9.63;7.13;;;7.90;61.50;;;;;;4962949;29;20477;-85
2021/04/03 03:09:42;;;;;;;9.73;6.40;;;7.90;61.40;;;;;;4958998;29;20465;-85
2021/04/03 03:12:11;;;;;;;7.07;6.37;;;7.90;61.60;;;;;;4958523;28;20489;-85
2021/04/03 03:14:40;;;;;;;7.37;6.57;;;7.80;61.60;;;;;;4957635;29;20467;-86
2021/04/03 03:20:06;;;;;;;7.43;4.97;;;7.70;62.00;;;;;;4963037;29;20472;-86
2021/04/03 04:07:52;;;;;;;8.43;4.37;;;7.00;63.70;;;;;;4845948;29;21026;-85
2021/04/03 04:11:16;;;;;;;9.10;4.60;;;7.00;64.10;;;;;;4807803;29;20460;-85
2021/04/03 04:24:51;;;;;;;5.80;4.97;;;7.10;64.30;;;;;;4745358;30;20457;-84
2021/04/03 05:40:04;;;;;;;7.80;4.73;;;7.70;63.70;;;;;;4888383;29;20454;-84
2021/04/03 05:46:15;;;;;;;6.30;4.97;;;7.80;63.40;;;;;;4851011;29;20444;-84
2021/04/03 05:58:40;;;;;;;;;;;;;;;;;;;;;
2021/04/03 06:01:18;;;;;;;7.67;5.10;;;8.30;61.90;;;;;;4823765;29;20458;-85
2021/04/03 06:04:30;;;;;;;6.93;4.63;;;8.40;61.90;;;;;;4823675;29;20441;-85
2021/04/03 06:20:42;;;;;;;8.70;6.00;;;8.00;63.30;;;;;;4757423;29;20450;-86
2021/04/03 06:23:36;;;;;;;5.30;4.80;;;8.00;65.90;;;;;;4848192;29;20508;-86
2021/04/03 06:26:53;;;;;;;;;;;;;;;;;;;;;
2021/04/03 06:37:30;;;;;;;8.50;5.70;;;8.00;68.50;;;;;;4887381;29;20435;-85
2021/04/03 07:01:51;;;;;;;6.13;5.50;;;8.10;69.00;;;;;;4831046;29;20451;-85
2021/04/03 07:22:15;;;;;;;12.00;5.43;;;9.20;61.80;;;;;;4722846;30;20479;-85
2021/04/03 07:25:28;;;;;;;7.07;5.03;;;10.00;59.20;;;;;;4826929;29;20544;-85
2021/04/03 07:32:35;;;;;;;7.60;4.73;;;11.80;53.80;;;;;;4792809;29;20491;-86
2021/04/03 08:06:37;;;;;;;;;;;;;;;;;;;;;
2021/04/03 08:09:09;;;;;;;4.53;3.37;;;12.40;50.20;;;;;;4949991;29;20480;-90
2021/04/03 08:11:37;;;;;;;7.77;3.80;;;12.20;50.50;;;;;;4956542;28;20496;-91
2021/04/03 08:14:04;;;;;;;5.47;3.67;;;11.90;50.90;;;;;;4949472;29;20461;-91
2021/04/03 08:16:32;;;;;;;3.20;2.70;;;12.00;51.20;;;;;;4948791;29;20477;-91
2021/04/03 08:19:00;;;;;;;9.70;3.57;;;12.30;50.60;;;;;;4936617;29;20500;-91
2021/04/03 08:21:28;;;;;;;4.57;2.70;;;12.80;49.80;;;;;;4929422;29;20450;-85
2021/04/03 08:23:56;;;;;;;5.40;3.37;;;13.30;48.70;;;;;;4933978;29;20443;-82
2021/04/03 08:26:24;;;;;;;6.77;5.30;;;13.80;47.90;;;;;;4940495;29;20458;-82
2021/04/03 08:28:52;;;;;;;6.37;3.40;;;14.20;46.80;;;;;;4934143;29;20503;-82
2021/04/03 08:31:20;;;;;;;5.80;3.03;;;14.50;45.70;;;;;;4941739;29;20689;-83
2021/04/03 08:33:48;;;;;;;4.37;2.80;;;14.70;45.40;;;;;;4942602;29;20452;-83
2021/04/03 08:36:15;;;;;;;6.30;3.23;;;15.30;44.70;;;;;;4947923;28;20454;-83
2021/04/03 08:38:43;;;;;;;6.90;3.40;;;16.10;43.80;;;;;;4929124;29;20466;-83
2021/04/03 08:41:10;;;;;;;5.33;3.40;;;16.60;42.80;;;;;;4944563;29;20491;-83
2021/04/03 08:43:37;;;;;;;6.70;3.80;;;17.40;41.50;;;;;;4937942;29;20488;-83
2021/04/03 08:46:08;;;;;;;4.23;3.37;;;18.30;40.30;;;;;;4943264;29;20763;-84
2021/04/03 08:48:36;;;;;;;7.80;3.20;;;18.90;38.70;;;;;;4946799;29;20497;-84
2021/04/03 08:51:03;;;;;;;5.30;3.10;;;19.20;38.00;;;;;;4952372;29;21006;-83
2021/04/03 08:53:37;;;;;;;3.07;2.20;;;18.60;37.40;;;;;;4944776;29;20473;-84
2021/04/03 08:56:05;;;;;;;3.30;2.47;;;18.60;37.90;;;;;;4949736;29;20447;-84
2021/04/03 08:58:31;;;;;;;5.80;3.30;;;18.50;37.70;;;;;;4946922;29;20483;-84
2021/04/03 09:00:58;;;;;;;5.10;3.30;;;17.60;38.80;;;;;;4946925;29;20876;-84
2021/04/03 09:03:26;;;;;;;3.57;3.27;;;19.00;38.40;;;;;;4940028;29;20445;-83
2021/04/03 09:05:52;;;;;;;5.77;3.83;;;18.30;37.10;;;;;;4943954;29;20445;-83
2021/04/03 09:08:20;;;;;;;3.70;3.27;;;17.10;38.70;;;;;;4959070;29;20464;-83
2021/04/03 09:10:53;;;;;;;5.00;3.33;;;16.00;39.70;;;;;;4958112;29;20516;-83
2021/04/03 09:13:19;;;;;;;5.53;3.43;;;15.50;41.80;;;;;;4943773;29;20485;-84
2021/04/03 09:15:47;;;;;;;5.77;3.13;;;15.40;42.20;;;;;;4955608;29;20442;-85
2021/04/03 09:18:14;;;;;;;5.20;3.73;;;15.70;43.10;;;;;;4941463;29;20466;-86
2021/04/03 09:20:48;;;;;;;5.00;3.77;;;17.10;41.40;;;;;;4929381;29;20454;-85
2021/04/03 09:23:15;;;;;;;5.90;4.00;;;18.00;39.50;;;;;;4950161;28;20473;-85
2021/04/03 09:25:43;;;;;;;5.87;3.63;;;17.10;39.50;;;;;;4957873;28;20433;-85
2021/04/03 09:28:12;;;;;;;4.60;3.37;;;16.10;40.60;;;;;;4956230;28;20489;-84
2021/04/03 09:30:42;;;;;;;6.37;4.83;;;16.20;41.50;;;;;;4953931;28;20449;-84
2021/04/03 09:33:21;;;;;;;5.73;3.43;;;17.40;41.30;;;;;;4952072;28;21681;-85
2021/04/03 09:35:49;;;;;;;4.10;3.20;;;19.60;38.40;;;;;;4957017;28;20460;-84
2021/04/03 09:38:26;;;;;;;5.60;3.67;;;21.30;35.80;;;;;;4954324;28;20470;-84
2021/04/03 09:40:52;;;;;;;4.10;3.27;;;21.40;33.90;;;;;;4952410;28;20440;-84
2021/04/03 09:43:18;;;;;;;5.07;3.47;;;20.10;34.60;;;;;;4953827;28;20450;-84
2021/04/03 09:45:45;;;;;;;5.90;3.90;;;18.80;35.90;;;;;;4945332;29;20525;-85
2021/04/03 09:48:11;;;;;;;5.20;3.50;;;18.30;37.20;;;;;;4934027;29;20470;-87
2021/04/03 09:50:38;;;;;;;5.10;2.97;;;19.80;36.80;;;;;;4936231;29;20462;-85
2021/04/03 09:53:10;;;;;;;5.57;4.10;;;20.60;35.00;;;;;;4935729;29;20481;-85
2021/04/03 09:55:37;;;;;;;4.43;3.50;;;22.20;34.00;;;;;;4934845;29;20537;-85
2021/04/03 09:58:05;;;;;;;7.97;3.03;;;22.70;32.70;;;;;;4932094;29;20476;-84
2021/04/03 10:00:32;;;;;;;3.83;3.13;;;23.90;31.20;;;;;;4933423;29;20450;-86
2021/04/03 10:03:00;;;;;;;3.70;2.87;;;24.60;30.00;;;;;;4934146;29;20490;-85
2021/04/03 10:05:26;;;;;;;5.90;3.33;;;24.40;29.80;;;;;;4940037;29;20446;-85
2021/04/03 10:07:53;;;;;;;5.57;3.57;;;24.50;29.90;;;;;;4943611;29;20454;-87
2021/04/03 10:10:22;;;;;;;4.40;2.80;;;26.50;28.50;;;;;;4938120;29;20488;-86
2021/04/03 10:12:49;;;;;;;5.50;2.90;;;26.90;27.60;;;;;;4942978;28;20491;-87
2021/04/03 10:15:16;;;;;;;4.87;3.10;;;25.30;27.80;;;;;;4951959;29;20461;-87
2021/04/03 10:17:42;;;;;;;3.43;2.90;;;23.90;28.90;;;;;;4945218;29;20473;-87
2021/04/03 10:20:09;;;;;;;7.50;3.37;;;23.00;29.60;;;;;;4945899;29;20478;-85
2021/04/03 10:22:35;;;;;;;3.00;2.73;;;21.70;30.50;;;;;;4946525;29;20452;-86
2021/04/03 10:25:02;;;;;;;3.50;3.20;;;20.40;32.00;;;;;;4940146;29;20455;-87
2021/04/03 10:27:29;;;;;;;7.43;4.00;;;18.30;33.60;;;;;;4942279;29;20480;-86
2021/04/03 10:29:55;;;;;;;4.70;3.10;;;17.00;36.50;;;;;;4951264;29;20422;-85
2021/04/03 10:32:22;;;;;;;4.70;3.80;;;17.00;38.20;;;;;;4947670;29;21012;-86
2021/04/03 10:34:48;;;;;;;7.40;3.30;;;17.30;37.80;;;;;;4938393;29;20484;-87
2021/04/03 10:37:14;;;;;;;5.40;3.70;;;16.30;37.70;;;;;;4933228;29;20463;-85
2021/04/03 10:39:43;;;;;;;4.50;3.10;;;15.20;39.80;;;;;;4935095;29;20458;-89
2021/04/03 10:42:10;;;;;;;6.53;3.53;;;15.40;41.00;;;;;;4940084;29;20465;-86
2021/04/03 10:44:37;;;;;;;3.90;3.30;;;16.60;40.00;;;;;;4942970;29;20453;-87
2021/04/03 10:47:07;;;;;;;5.83;3.23;;;17.90;37.50;;;;;;4945578;29;20476;-87
2021/04/03 10:49:33;;;;;;;5.70;3.80;;;19.00;35.70;;;;;;4941432;28;20461;-86
2021/04/03 10:51:59;;;;;;;4.80;3.30;;;18.60;35.40;;;;;;4941132;29;21022;-85
2021/04/03 10:54:26;;;;;;;4.20;3.80;;;18.90;35.80;;;;;;4934194;29;20442;-85
2021/04/03 10:56:52;;;;;;;3.30;2.50;;;19.30;35.30;;;;;;4944199;29;20536;-86
2021/04/03 10:59:20;;;;;;;4.03;2.77;;;19.80;34.00;;;;;;4939144;29;20949;-84
2021/04/03 11:01:47;;;;;;;4.70;3.93;;;20.10;33.90;;;;;;4945612;29;20460;-86
2021/04/03 11:04:13;;;;;;;4.67;3.10;;;20.40;34.00;;;;;;4935711;29;20538;-86
2021/04/03 11:06:39;;;;;;;4.07;3.30;;;21.50;31.80;;;;;;4958262;28;20438;-84
2021/04/03 11:09:06;;;;;;;4.70;3.77;;;22.10;32.00;;;;;;4951184;28;20452;-85
2021/04/03 11:11:32;;;;;;;5.57;3.27;;;22.10;31.70;;;;;;4957131;28;20457;-86
2021/04/03 11:13:59;;;;;;;5.07;3.70;;;23.30;31.30;;;;;;4950446;29;20454;-86
2021/04/03 11:16:26;;;;;;;7.57;4.70;;;23.50;29.90;;;;;;4947787;29;20448;-86
2021/04/03 11:18:53;;;;;;;6.60;3.87;;;23.40;29.40;;;;;;4952654;29;20458;-86
2021/04/03 11:21:20;;;;;;;4.20;3.17;;;22.90;30.00;;;;;;4959958;28;20449;-85
2021/04/03 11:23:46;;;;;;;6.80;4.43;;;21.30;31.10;;;;;;4953519;28;20449;-86
2021/04/03 11:26:12;;;;;;;6.40;3.20;;;20.80;32.40;;;;;;4946944;29;20455;-86
2021/04/03 11:28:39;;;;;;;5.87;4.87;;;21.70;31.40;;;;;;4944501;29;20512;-86
2021/04/03 11:31:05;;;;;;;4.40;2.73;;;21.00;31.10;;;;;;4952280;29;20532;-85
2021/04/03 11:33:31;;;;;;;6.10;3.53;;;19.80;32.20;;;;;;4954878;29;20489;-86
2021/04/03 11:35:58;;;;;;;3.77;2.77;;;19.10;33.80;;;;;;4944468;29;20446;-86
2021/04/03 11:38:25;;;;;;;7.40;3.60;;;20.00;34.00;;;;;;4944624;29;21034;-87
2021/04/03 11:40:51;;;;;;;4.57;3.13;;;19.90;33.00;;;;;;4950452;29;20449;-86
2021/04/03 11:43:18;;;;;;;3.33;2.73;;;19.20;33.50;;;;;;4949864;29;20439;-86
2021/04/03 11:45:44;;;;;;;4.90;3.07;;;18.80;33.90;;;;;;4950037;29;20450;-85
2021/04/03 11:48:11;;;;;;;4.50;2.53;;;18.60;33.70;;;;;;4946697;29;20520;-87
2021/04/03 11:50:37;;;;;;;4.93;2.93;;;17.90;34.40;;;;;;4946701;29;20438;-85
2021/04/03 11:53:04;;;;;;;5.70;3.10;;;17.30;35.60;;;;;;4935874;29;20487;-86
2021/04/03 11:55:31;;;;;;;8.23;4.13;;;18.20;35.80;;;;;;4951172;29;20474;-85
2021/04/03 11:57:58;;;;;;;9.20;3.23;;;18.60;34.10;;;;;;4952387;29;20465;-86
2021/04/03 12:00:25;;;;;;;4.13;2.80;;;19.20;34.90;;;;;;4948137;28;20466;-84
2021/04/03 12:02:51;;;;;;;3.83;3.10;;;20.00;33.40;;;;;;4945365;28;20452;-85
2021/04/03 12:05:18;;;;;;;3.40;2.93;;;20.50;33.10;;;;;;4946896;28;20425;-85
2021/04/03 12:07:44;;;;;;;4.73;3.10;;;22.40;31.60;;;;;;4951838;28;20502;-85
2021/04/03 12:10:15;;;;;;;3.80;2.47;;;24.30;30.00;;;;;;4937571;29;20547;-85
2021/04/03 12:12:42;;;;;;;4.83;3.10;;;25.60;28.60;;;;;;4929420;29;20492;-85
2021/04/03 12:15:10;;;;;;;3.70;2.70;;;25.90;27.80;;;;;;4930739;29;20434;-85
2021/04/03 12:17:36;;;;;;;4.23;3.10;;;25.00;27.20;;;;;;4931368;29;20473;-87
2021/04/03 12:20:04;;;;;;;3.83;3.00;;;23.00;28.60;;;;;;4937915;29;20464;-86
2021/04/03 12:22:31;;;;;;;5.60;3.60;;;21.30;29.80;;;;;;4940448;29;20513;-86
2021/04/03 12:24:57;;;;;;;7.03;3.60;;;19.70;31.20;;;;;;4940681;29;20943;-85
2021/04/03 12:27:24;;;;;;;5.43;2.43;;;17.60;33.70;;;;;;4933259;29;20465;-85
2021/04/03 12:29:50;;;;;;;6.17;2.93;;;16.20;35.80;;;;;;4937679;29;20919;-85
2021/04/03 12:32:17;;;;;;;4.57;3.37;;;15.70;37.40;;;;;;4938567;29;21002;-86
2021/04/03 12:34:43;;;;;;;6.10;3.27;;;15.60;37.70;;;;;;4940503;29;20504;-85
2021/04/03 12:37:10;;;;;;;6.00;3.60;;;15.70;37.60;;;;;;4939954;29;20471;-86
2021/04/03 12:39:36;;;;;;;5.40;2.40;;;15.90;37.40;;;;;;4943700;29;20493;-85
2021/04/03 12:42:03;;;;;;;7.33;2.50;;;18.00;36.10;;;;;;4949728;29;20438;-88
2021/04/03 12:44:30;;;;;;;2.70;2.23;;;21.10;32.30;;;;;;4939602;29;20462;-86
2021/04/03 12:46:56;;;;;;;4.40;2.33;;;22.80;29.00;;;;;;4943919;29;20512;-86
2021/04/03 12:49:22;;;;;;;3.20;2.30;;;25.40;27.30;;;;;;4939412;29;20451;-86
2021/04/03 12:51:50;;;;;;;4.10;2.43;;;26.10;25.60;;;;;;4947969;29;20438;-86
2021/04/03 12:54:17;;;;;;;2.83;2.30;;;25.80;25.50;;;;;;4945896;29;20434;-86
2021/04/03 12:56:43;;;;;;;7.47;2.87;;;23.30;26.00;;;;;;4947033;29;20460;-86
2021/04/03 12:59:10;;;;;;;3.30;2.57;;;21.50;28.10;;;;;;4937139;29;20455;-86
2021/04/03 13:01:37;;;;;;;3.60;2.20;;;20.20;29.00;;;;;;4948848;29;20513;-87
2021/04/03 13:04:04;;;;;;;4.93;3.20;;;19.00;29.80;;;;;;4944388;29;20431;-87
2021/04/03 13:06:30;;;;;;;2.60;2.10;;;17.90;30.00;;;;;;4945613;29;20438;-87
2021/04/03 13:08:56;;;;;;;2.40;1.80;;;16.50;31.30;;;;;;4937425;29;20573;-87
2021/04/03 13:11:26;;;;;;;3.53;2.47;;;16.50;32.70;;;;;;4936026;29;20449;-85
2021/04/03 13:13:52;;;;;;;6.20;2.60;;;16.70;32.80;;;;;;4949429;29;20911;-86
2021/04/03 13:16:18;;;;;;;4.47;2.90;;;16.70;32.10;;;;;;4940200;29;20688;-86
2021/04/03 13:18:45;;;;;;;4.33;2.97;;;16.30;32.70;;;;;;4940526;29;20503;-85
2021/04/03 13:21:13;;;;;;;3.67;2.10;;;15.30;34.50;;;;;;4942010;29;20506;-85
2021/04/03 13:23:39;;;;;;;2.73;2.30;;;15.00;35.70;;;;;;4949926;29;20446;-85
2021/04/03 13:26:05;;;;;;;6.00;4.10;;;14.90;36.50;;;;;;4951324;29;20530;-86
2021/04/03 13:28:31;;;;;;;4.90;2.73;;;14.90;36.50;;;;;;4951602;29;20468;-86
2021/04/03 13:30:58;;;;;;;2.90;2.30;;;14.70;35.70;;;;;;4958774;29;20452;-86
2021/04/03 13:33:24;;;;;;;3.20;2.00;;;14.60;35.60;;;;;;4958254;29;20488;-85
2021/04/03 13:35:51;;;;;;;4.30;2.40;;;14.90;36.00;;;;;;4958137;29;20465;-85
2021/04/03 13:38:18;;;;;;;3.47;2.50;;;15.70;35.40;;;;;;4953055;29;20466;-86
2021/04/03 13:40:44;;;;;;;3.93;2.30;;;17.70;33.80;;;;;;4943772;29;20452;-86
2021/04/03 13:43:10;;;;;;;2.47;2.00;;;18.30;31.40;;;;;;4934877;29;20446;-85
2021/04/03 13:45:37;;;;;;;3.13;2.77;;;17.90;31.10;;;;;;4941286;29;20462;-85
2021/04/03 13:48:03;;;;;;;3.90;2.30;;;17.10;32.00;;;;;;4944868;29;20481;-87
2021/04/03 13:50:30;;;;;;;6.57;2.43;;;16.30;33.70;;;;;;4944561;29;20838;-85
2021/04/03 13:52:57;;;;;;;4.70;2.33;;;15.70;34.00;;;;;;4948982;29;20488;-85
2021/04/03 13:55:23;;;;;;;4.70;2.30;;;15.30;34.60;;;;;;4942544;29;20447;-86
2021/04/03 13:57:49;;;;;;;3.90;2.73;;;15.30;34.80;;;;;;4932081;29;20462;-84
2021/04/03 14:00:17;;;;;;;6.40;2.53;;;15.10;34.20;;;;;;4930859;29;20442;-85
2021/04/03 14:02:43;;;;;;;4.90;2.67;;;14.50;35.10;;;;;;4930352;29;20453;-85
2021/04/03 14:05:10;;;;;;;2.77;2.30;;;14.50;36.30;;;;;;4931236;29;20454;-84
2021/04/03 14:07:36;;;;;;;2.80;2.30;;;14.40;36.50;;;;;;4936500;29;20488;-85
2021/04/03 14:10:05;;;;;;;3.43;2.67;;;14.30;36.90;;;;;;4938998;29;20454;-85
2021/04/03 14:12:31;;;;;;;3.70;2.53;;;14.60;36.90;;;;;;4939321;29;20479;-85
2021/04/03 14:14:57;;;;;;;5.47;2.67;;;14.70;36.00;;;;;;4938799;29;20523;-84
2021/04/03 14:17:24;;;;;;;2.40;1.93;;;14.90;36.30;;;;;;4939424;29;20480;-85
2021/04/03 14:19:50;;;;;;;3.33;2.90;;;15.40;35.70;;;;;;4941799;29;20822;-86
2021/04/03 14:22:16;;;;;;;4.40;2.63;;;15.20;35.70;;;;;;4940103;29;20826;-85
2021/04/03 14:24:42;;;;;;;3.17;2.13;;;15.10;36.20;;;;;;4940288;29;20860;-85
2021/04/03 14:27:09;;;;;;;5.90;2.67;;;15.20;36.30;;;;;;4938359;29;20475;-85
2021/04/03 14:29:35;;;;;;;2.80;2.10;;;14.60;36.10;;;;;;4938524;29;20448;-85
2021/04/03 14:32:02;;;;;;;2.87;2.03;;;14.70;36.70;;;;;;4940123;29;20442;-86
2021/04/03 14:34:28;;;;;;;3.50;2.60;;;14.80;36.70;;;;;;4935108;29;20451;-86
2021/04/03 14:36:54;;;;;;;4.70;2.80;;;14.90;37.00;;;;;;4938589;29;20445;-86
2021/04/03 14:39:21;;;;;;;4.27;2.80;;;14.90;36.80;;;;;;4932533;29;20899;-85
2021/04/03 14:41:48;;;;;;;4.83;3.00;;;15.00;36.10;;;;;;4940003;29;20462;-86
2021/04/03 14:44:16;;;;;;;3.97;2.50;;;15.10;36.30;;;;;;4927818;29;20449;-86
2021/04/03 14:46:44;;;;;;;2.33;1.90;;;15.10;36.30;;;;;;4928548;29;20451;-86
2021/04/03 14:49:11;;;;;;;5.03;3.13;;;15.30;35.90;;;;;;4930040;29;20458;-85
2021/04/03 14:51:40;;;;;;;2.50;1.93;;;15.40;35.30;;;;;;4943803;29;20437;-86
2021/04/03 15:35:52;;;;;;;2.87;2.30;;;14.30;35.90;;;;;;4824997;29;20901;-86
2021/04/03 15:55:45;;;;;;;5.13;2.63;;;13.90;36.80;;;;;;4824866;29;20450;-85
2021/04/03 16:17:07;;;;;;;;;;;;;;;;;;;;;
2021/04/03 17:32:45;;;;;;;3.83;2.10;;;12.20;48.10;;;;;;4764750;30;20438;-87
2021/04/03 17:41:58;;;;;;;3.13;2.33;;;12.40;48.10;;;;;;4966670;28;20460;-86
2021/04/03 17:45:05;;;;;;;3.53;2.83;;;12.30;48.00;;;;;;4977188;28;20460;-86
2021/04/03 18:01:59;;;;;;;;;;;;;;;;;;;;;
2021/04/03 18:05:11;;;;;;;5.13;3.30;;;12.20;50.00;;;;;;4841454;29;20450;-87
2021/04/03 18:11:06;;;;;;;4.00;2.43;;;11.90;50.40;;;;;;4952619;29;20433;-88
2021/04/03 18:13:37;;;;;;;6.00;5.33;;;11.90;50.20;;;;;;4945484;29;20477;-91
2021/04/03 18:16:07;;;;;;;7.70;3.70;;;11.90;50.60;;;;;;4949170;29;20627;-90
2021/04/03 18:18:36;;;;;;;10.53;5.00;;;11.80;51.40;;;;;;4952745;29;20474;-91
2021/04/03 18:21:03;;;;;;;5.67;3.83;;;11.80;50.90;;;;;;4955279;29;20453;-90
2021/04/03 18:23:29;;;;;;;5.40;4.03;;;11.80;51.40;;;;;;4954274;29;20438;-91
2021/04/03 18:25:59;;;;;;;5.10;3.60;;;11.80;51.70;;;;;;4960969;28;20447;-90
2021/04/03 18:28:35;;;;;;;7.60;4.10;;;11.80;52.10;;;;;;4961108;28;20458;-90
2021/04/03 18:31:02;;;;;;;5.80;3.50;;;11.80;52.50;;;;;;4954391;28;20506;-89
2021/04/03 19:32:43;;;;;;;6.33;4.40;;;10.70;52.80;;;;;;4849589;29;20450;-87
2021/04/03 19:57:07;;;;;;;;;;;;;;;;;;;;;
2021/04/03 20:17:27;;;;;;;9.97;7.77;;;10.50;55.50;;;;;;4849278;29;20471;-88
2021/04/03 20:20:35;;;;;;;10.33;7.80;;;10.50;56.50;;;;;;4776893;29;20436;-85
2021/04/03 20:43:09;;;;;;;5.13;4.10;;;10.10;56.00;;;;;;4914597;29;20454;-87
2021/04/03 20:49:18;;;;;;;5.13;3.90;;;10.00;56.00;;;;;;4919563;29;20459;-89
2021/04/03 21:06:07;;;;;;;11.30;5.90;;;9.60;59.00;;;;;;4876393;29;20453;-88
2021/04/03 21:09:07;;;;;;;;;;;;;;;;;;;;;
2021/04/03 21:15:46;;;;;;;8.73;5.33;;;9.40;54.20;;;;;;4828050;29;20440;-89
2021/04/03 21:19:06;;;;;;;;;;;;;;;;;;;;;
2021/04/03 21:29:55;;;;;;;;;;;;;;;;;;;;;
2021/04/03 21:32:48;;;;;;;7.77;5.90;;;9.00;53.80;;;;;;4903911;29;20431;-88
2021/04/03 21:42:12;;;;;;;;;;;;;;;;;;;;;
2021/04/03 21:54:58;;;;;;;;;;;;;;;;;;;;;
2021/04/03 22:44:37;;;;;;;8.40;6.17;;;7.80;59.10;;;;;;4811800;29;20575;-88
2021/04/03 23:22:00;;;;;;;12.30;6.83;;;7.10;62.80;;;;;;4758650;30;20532;-87
2021/04/03 23:32:21;;;;;;;9.87;7.10;;;6.90;65.90;;;;;;4771792;29;20451;-86
